»·PEaware :: N112LW KFOT-O69

N112LW :: KFOT-O69

FLIGHT INFORMATION

Flight Status: Arrived
Operator: Privately registered:
United States
More flights under this callsign
Pilot: Lee W. (44)
Aircraft: PIPER PA-24 COMMANCHE
(PA24)
More flights by this aircraft type
Origin: KFOT Rohnerville
United States
Destination: O69 Petaluma Mun
United States
More flights between these airports :: More routes between these airports
Route: +FOT UK STS
File this flight plan on PilotEdge
Remarks:
Altitude:
(Current/Filed)
9,000ft
Speed:
(Current/Filed)
160kts
Departed: 09-Jun-12 09:08 AM
Arrived: 09-Jun-12 10:07 AM
Distance/Time
Traveled:
155nm/0:59
Distance/Time
To Go:
Arrived

Flight Plot

Page will automatically refresh every two minutes.


Map Options




Map Legend


Flown Route
Filed Route
Departure Airport
Arrival Airport
Navaid (VOR, NDB)
Fix

Horizontal Profiles

Position Reports

Time Latitude Longitude Heading Altitude Ground
Speed
09-Jun-12 09:04 40.555623 -124.132543 220 394ft 0kts
09-Jun-12 09:05 40.555946 -124.134586 302 394ft 19kts
09-Jun-12 09:06 40.557140 -124.138130 123 394ft 0kts
09-Jun-12 09:07 40.544820 -124.114648 123 799ft 125kts
09-Jun-12 09:08 40.511694 -124.092878 160 1636ft 151kts
09-Jun-12 09:09 40.471579 -124.072845 157 2447ft 157kts
09-Jun-12 09:10 40.431757 -124.050059 155 3229ft 157kts
09-Jun-12 09:11 40.393730 -124.026467 153 4150ft 149kts
09-Jun-12 09:12 40.357592 -124.002894 152 5121ft 144kts
09-Jun-12 09:13 40.326324 -123.981868 152 6012ft 140kts
09-Jun-12 09:14 40.294501 -123.960049 151 6949ft 135kts
09-Jun-12 09:15 40.262180 -123.937584 151 7919ft 129kts
09-Jun-12 09:16 40.234075 -123.917822 150 8836ft 98kts
09-Jun-12 09:17 40.214070 -123.902596 149 9331ft 86kts
09-Jun-12 09:18 40.188816 -123.884133 151 9408ft 131kts
09-Jun-12 09:19 40.153595 -123.858604 151 9398ft 156kts
09-Jun-12 09:20 40.114989 -123.830818 151 9395ft 164kts
09-Jun-12 09:21 40.073228 -123.800913 151 9021ft 178kts
09-Jun-12 09:22 40.034840 -123.773499 151 9010ft 157kts
09-Jun-12 09:23 39.998847 -123.747821 151 9012ft 153kts
09-Jun-12 09:24 39.962375 -123.721854 151 9000ft 154kts
09-Jun-12 09:25 39.924737 -123.695108 151 8978ft 157kts
09-Jun-12 09:26 39.885801 -123.667494 151 8945ft 161kts
09-Jun-12 09:28 39.811639 -123.615020 150 8884ft 172kts
09-Jun-12 09:29 39.770056 -123.585614 146 8869ft 174kts
09-Jun-12 09:30 39.726942 -123.555214 150 8875ft 177kts
09-Jun-12 09:31 39.683285 -123.524417 151 8865ft 179kts
09-Jun-12 09:32 39.639714 -123.493746 150 8872ft 179kts
09-Jun-12 09:33 39.595711 -123.462842 149 8871ft 179kts
09-Jun-12 09:34 39.552076 -123.432239 151 8879ft 180kts
09-Jun-12 09:35 39.508189 -123.401531 149 8874ft 180kts
09-Jun-12 09:36 39.464475 -123.370936 150 8875ft 179kts
09-Jun-12 09:37 39.425432 -123.343601 151 8873ft 180kts
09-Jun-12 09:38 39.382266 -123.313516 151 8874ft 179kts
09-Jun-12 09:39 39.338481 -123.282966 150 8877ft 179kts
09-Jun-12 09:40 39.295041 -123.252778 151 8874ft 179kts
09-Jun-12 09:41 39.251085 -123.224616 156 8868ft 179kts
09-Jun-12 09:42 39.205832 -123.198013 153 8867ft 179kts
09-Jun-12 09:43 39.160678 -123.171185 154 8873ft 179kts
09-Jun-12 09:44 39.115154 -123.144458 155 8873ft 179kts
09-Jun-12 09:45 39.069639 -123.118153 154 8874ft 180kts
09-Jun-12 09:46 39.024161 -123.091814 154 8869ft 180kts
09-Jun-12 09:47 38.978273 -123.066319 156 8867ft 180kts
09-Jun-12 09:48 38.931855 -123.041153 155 8861ft 181kts
09-Jun-12 09:49 38.885484 -123.015952 157 8850ft 182kts
09-Jun-12 09:50 38.838416 -122.990467 155 8838ft 183kts
09-Jun-12 09:51 38.791507 -122.965021 155 8825ft 184kts
09-Jun-12 09:52 38.744746 -122.939693 155 8817ft 185kts
09-Jun-12 09:53 38.697988 -122.914381 154 8814ft 185kts
09-Jun-12 09:54 38.650481 -122.888283 154 8356ft 195kts
09-Jun-12 09:55 38.602929 -122.861659 154 7513ft 196kts
09-Jun-12 09:56 38.553178 -122.834235 155 6628ft 195kts
09-Jun-12 09:57 38.504734 -122.807557 149 5734ft 183kts
09-Jun-12 09:58 38.466330 -122.775882 144 4815ft 150kts
09-Jun-12 09:59 38.433624 -122.748806 144 4014ft 134kts
09-Jun-12 10:00 38.406965 -122.726679 144 4010ft 133kts
09-Jun-12 10:01 38.370930 -122.697016 145 3375ft 160kts
09-Jun-12 10:02 38.339425 -122.671287 145 2998ft 108kts
09-Jun-12 10:03 38.311823 -122.656303 169 1987ft 107kts
09-Jun-12 10:04 38.283442 -122.648214 138 1022ft 99kts
09-Jun-12 10:05 38.266482 -122.621240 121 357ft 101kts
09-Jun-12 10:06 38.256050 -122.602251 122 89ft 23kts
09-Jun-12 10:07 38.255973 -122.603213 302 89ft 20kts
09-Jun-12 10:08 38.256759 -122.606119 304 89ft 5kts
09-Jun-12 10:09 38.256764 -122.606129 306 89ft 0kts
09-Jun-12 10:10 38.256764 -122.606129 306 89ft 0kts
09-Jun-12 10:11 38.256764 -122.606129 306 89ft 0kts
09-Jun-12 10:12 38.256764 -122.606129 306 89ft 0kts
09-Jun-12 10:13 38.256764 -122.606129 306 89ft 0kts

Navigation Log

Ident Type
Flight plan parsing failed, navigation log unavailable